createdAt,value
2024-05-09T00:00:15.692Z,99128.09
2024-05-09T00:01:23.637Z,99131.94
2024-05-09T00:02:26.029Z,99123.75
2024-05-09T00:03:30.805Z,99125.97
2024-05-09T00:04:32.873Z,99122.97
2024-05-09T00:05:35.642Z,99121.94
2024-05-09T00:06:40.665Z,99126.13
2024-05-09T00:07:42.734Z,99120.69
2024-05-09T00:08:47.450Z,99121.34
2024-05-09T00:09:49.491Z,99120.41
2024-05-09T00:10:54.337Z,99119.47
2024-05-09T00:11:56.734Z,99115.94
2024-05-09T00:13:01.520Z,99111.59
2024-05-09T00:14:06.221Z,99123.63
2024-05-09T00:15:11.595Z,99116.78
2024-05-09T00:16:13.742Z,99115.94
2024-05-09T00:17:18.683Z,99116.97
2024-05-09T00:18:21.132Z,99116.25
2024-05-09T00:19:26.172Z,99119.88
2024-05-09T00:20:36.487Z,99120.91
2024-05-09T00:21:45.641Z,99111.75
2024-05-09T00:22:47.756Z,99113.59
2024-05-09T00:23:49.939Z,99116.31
2024-05-09T00:24:54.738Z,99118.19
2024-05-09T00:25:56.957Z,99117.72
2024-05-09T00:27:01.618Z,99116.19
2024-05-09T00:28:04.198Z,99115.41
2024-05-09T00:29:11.484Z,99113.03
2024-05-09T00:30:20.999Z,99112.28
2024-05-09T00:31:29.349Z,99111.56
2024-05-09T00:32:31.689Z,99112.50
2024-05-09T00:33:36.628Z,99109.97
2024-05-09T00:34:38.946Z,99106.78
2024-05-09T00:35:44.088Z,99114.75
2024-05-09T00:36:46.333Z,99102.88
2024-05-09T00:37:51.033Z,99104.03
2024-05-09T00:38:53.117Z,99102.56
2024-05-09T00:39:58.858Z,99106.16
2024-05-09T00:41:01.006Z,99097.53
2024-05-09T00:42:06.385Z,99106.16
2024-05-09T00:43:08.976Z,99096.81
2024-05-09T00:44:16.478Z,99094.94
2024-05-09T00:45:18.711Z,99090.56
2024-05-09T00:46:23.699Z,99102.00
2024-05-09T00:47:25.981Z,99102.84
2024-05-09T00:48:31.214Z,99097.75
2024-05-09T00:49:34.045Z,99103.66
2024-05-09T00:50:41.768Z,99101.78
2024-05-09T00:51:44.239Z,99094.94
2024-05-09T00:52:49.503Z,99099.53
2024-05-09T00:53:51.912Z,99094.50
2024-05-09T00:54:56.712Z,99108.72
2024-05-09T00:55:59.147Z,99102.72
2024-05-09T00:57:02.605Z,99109.50
2024-05-09T00:58:08.120Z,99110.88
2024-05-09T00:59:10.257Z,99113.84
2024-05-09T01:00:26.534Z,99121.19
2024-05-09T01:01:34.497Z,99110.53
2024-05-09T01:02:39.335Z,99110.59
2024-05-09T01:03:41.775Z,99111.75
2024-05-09T01:04:46.982Z,99120.63
2024-05-09T01:05:49.246Z,99116.53
2024-05-09T01:06:53.975Z,99120.16
2024-05-09T01:07:56.092Z,99117.91
2024-05-09T01:09:00.769Z,99119.03
2024-05-09T01:10:03.246Z,99119.28
2024-05-09T01:11:09.270Z,99124.06
2024-05-09T01:12:11.713Z,99124.53
2024-05-09T01:13:13.995Z,99121.63
2024-05-09T01:14:18.814Z,99123.66
2024-05-09T01:15:23.522Z,99125.00
2024-05-09T01:16:28.499Z,99123.59
2024-05-09T01:17:31.006Z,99130.69
2024-05-09T01:18:35.952Z,99124.88
2024-05-09T01:19:38.239Z,99120.78
2024-05-09T01:20:44.976Z,99122.72
2024-05-09T01:21:47.641Z,99131.56
2024-05-09T01:22:53.992Z,99122.38
2024-05-09T01:23:58.816Z,99126.16
2024-05-09T01:25:03.474Z,99129.81
2024-05-09T01:26:05.680Z,99126.75
2024-05-09T01:27:10.357Z,99126.16
2024-05-09T01:28:12.455Z,99129.78
2024-05-09T01:29:17.193Z,99137.69
2024-05-09T01:30:24.357Z,99137.94
2024-05-09T01:31:32.529Z,99132.09
2024-05-09T01:32:34.788Z,99137.44
2024-05-09T01:33:39.903Z,99141.88
2024-05-09T01:34:42.214Z,99140.38
2024-05-09T01:35:47.007Z,99140.44
2024-05-09T01:36:49.280Z,99137.25
2024-05-09T01:37:53.991Z,99134.19
2024-05-09T01:38:58.775Z,99138.94
2024-05-09T01:40:03.746Z,99139.25
2024-05-09T01:41:06.079Z,99142.84
2024-05-09T01:42:08.158Z,99137.75
2024-05-09T01:43:12.930Z,99137.75
2024-05-09T01:44:15.210Z,99136.25
2024-05-09T01:45:19.887Z,99143.16
2024-05-09T01:46:22.001Z,99136.25
2024-05-09T01:47:26.954Z,99136.06
2024-05-09T01:48:29.261Z,99139.56
2024-05-09T01:49:38.307Z,99134.63
2024-05-09T01:50:42.695Z,99137.56
2024-05-09T01:51:48.164Z,99132.56
2024-05-09T01:52:50.264Z,99139.53
2024-05-09T01:53:56.873Z,99133.44
2024-05-09T01:55:05.604Z,99139.38
2024-05-09T01:56:12.311Z,99132.38
2024-05-09T01:57:14.419Z,99140.03
2024-05-09T01:58:19.129Z,99127.13
2024-05-09T01:59:21.304Z,99128.03
2024-05-09T02:00:36.830Z,99127.97
2024-05-09T02:01:56.468Z,99124.53
2024-05-09T02:03:00.019Z,99125.53
2024-05-09T02:04:04.922Z,99127.28
2024-05-09T02:05:07.519Z,99134.22
2024-05-09T02:06:12.468Z,99123.09
2024-05-09T02:07:14.621Z,99121.44
2024-05-09T02:08:20.647Z,99123.09
2024-05-09T02:09:23.095Z,99125.88
2024-05-09T02:10:32.917Z,99126.94
2024-05-09T02:11:41.128Z,99128.59
2024-05-09T02:12:46.094Z,99121.75
2024-05-09T02:13:48.218Z,99132.94
2024-05-09T02:14:54.265Z,99131.19
2024-05-09T02:15:56.613Z,99127.78
2024-05-09T02:17:01.458Z,99124.50
2024-05-09T02:18:04.195Z,99127.16
2024-05-09T02:19:09.117Z,99127.25
2024-05-09T02:20:18.778Z,99122.16
2024-05-09T02:21:34.186Z,99127.50
2024-05-09T02:22:36.427Z,99118.91
2024-05-09T02:23:41.168Z,99118.91
2024-05-09T02:24:43.387Z,99125.16
2024-05-09T02:25:50.781Z,99123.56
2024-05-09T02:26:52.923Z,99124.63
2024-05-09T02:27:57.719Z,99127.44
2024-05-09T02:29:00.012Z,99120.00
2024-05-09T02:30:09.908Z,99123.47
2024-05-09T02:31:17.384Z,99131.41
2024-05-09T02:32:22.256Z,99121.06
2024-05-09T02:33:24.614Z,99128.81
2024-05-09T02:34:26.979Z,99127.16
2024-05-09T02:35:32.002Z,99123.78
2024-05-09T02:36:34.023Z,99124.84
2024-05-09T02:37:36.070Z,99124.94
2024-05-09T02:38:39.099Z,99119.25
2024-05-09T02:39:43.863Z,99127.09
2024-05-09T02:40:48.474Z,99131.66
2024-05-09T02:41:50.656Z,99136.94
2024-05-09T02:42:52.699Z,99131.94
2024-05-09T02:43:54.922Z,99129.44
2024-05-09T02:44:59.748Z,99122.59
2024-05-09T02:46:01.810Z,99127.00
2024-05-09T02:47:04.136Z,99125.41
2024-05-09T02:48:07.577Z,99126.41
2024-05-09T02:49:12.641Z,99122.22
2024-05-09T02:50:19.415Z,99131.78
2024-05-09T02:51:28.298Z,99127.59
2024-05-09T02:52:32.967Z,99121.69
2024-05-09T02:53:35.201Z,99126.97
2024-05-09T02:54:37.504Z,99124.47
2024-05-09T02:55:40.082Z,99126.31
2024-05-09T02:56:47.259Z,99124.63
2024-05-09T02:57:49.345Z,99127.41
2024-05-09T02:58:51.558Z,99136.06
2024-05-09T02:59:56.325Z,99126.81
2024-05-09T03:00:58.552Z,99131.22
2024-05-09T03:02:00.896Z,99125.31
2024-05-09T03:03:05.933Z,99127.88
2024-05-09T03:04:08.318Z,99134.00
2024-05-09T03:05:11.153Z,99133.25
2024-05-09T03:06:15.911Z,99129.00
2024-05-09T03:07:20.219Z,99131.59
2024-05-09T03:08:22.495Z,99131.66
2024-05-09T03:09:28.050Z,99133.47
2024-05-09T03:10:35.675Z,99126.66
2024-05-09T03:11:40.607Z,99141.22
2024-05-09T03:12:45.570Z,99130.06
2024-05-09T03:13:50.569Z,99133.47
2024-05-09T03:14:52.678Z,99125.72
2024-05-09T03:15:54.887Z,99125.72
2024-05-09T03:16:57.103Z,99128.16
2024-05-09T03:18:03.039Z,99134.09
2024-05-09T03:19:05.429Z,99127.41
2024-05-09T03:20:17.279Z,99129.16
2024-05-09T03:21:28.311Z,99132.78
2024-05-09T03:22:30.428Z,99143.25
2024-05-09T03:23:32.626Z,99144.91
2024-05-09T03:24:34.673Z,99139.59
2024-05-09T03:25:39.413Z,99139.47
2024-05-09T03:26:41.486Z,99146.16
2024-05-09T03:27:46.309Z,99153.75
2024-05-09T03:28:48.408Z,99145.03
2024-05-09T03:29:53.250Z,99145.03
2024-05-09T03:30:55.215Z,99153.59
2024-05-09T03:31:57.367Z,99141.53
2024-05-09T03:32:59.951Z,99147.53
2024-05-09T03:34:04.953Z,99143.19
2024-05-09T03:35:07.813Z,99146.41
2024-05-09T03:36:11.264Z,99154.75
2024-05-09T03:37:16.432Z,99142.63
2024-05-09T03:38:18.707Z,99144.31
2024-05-09T03:39:20.868Z,99150.22
2024-05-09T03:40:28.970Z,99154.41
2024-05-09T03:41:32.947Z,99143.91
2024-05-09T03:42:40.778Z,99147.19
2024-05-09T03:43:49.465Z,99147.06
2024-05-09T03:44:52.602Z,99150.53
2024-05-09T03:45:54.708Z,99152.13
2024-05-09T03:46:59.458Z,99146.06
2024-05-09T03:48:01.820Z,99146.06
2024-05-09T03:49:04.100Z,99145.22
2024-05-09T03:50:14.972Z,99153.66
2024-05-09T03:51:22.813Z,99144.91
2024-05-09T03:52:24.957Z,99142.88
2024-05-09T03:53:27.235Z,99129.28
2024-05-09T03:54:31.838Z,99136.13
2024-05-09T03:55:33.937Z,99142.00
2024-05-09T03:56:36.076Z,99141.28
2024-05-09T03:57:41.061Z,99147.28
2024-05-09T03:58:43.208Z,99144.38
2024-05-09T03:59:47.889Z,99144.03
2024-05-09T04:00:50.094Z,99141.19
2024-05-09T04:01:54.937Z,99139.25
2024-05-09T04:02:57.185Z,99138.88
2024-05-09T04:03:59.433Z,99139.56
2024-05-09T04:05:01.668Z,99137.59
2024-05-09T04:06:07.954Z,99138.22
2024-05-09T04:07:10.080Z,99136.38
2024-05-09T04:08:12.409Z,99136.16
2024-05-09T04:09:17.525Z,99141.91
2024-05-09T04:10:27.716Z,99142.34
2024-05-09T04:11:35.004Z,99139.06
2024-05-09T04:12:40.037Z,99144.47
2024-05-09T04:13:42.215Z,99142.84
2024-05-09T04:14:44.401Z,99147.50
2024-05-09T04:15:49.092Z,99147.19
2024-05-09T04:16:53.813Z,99147.13
2024-05-09T04:17:56.289Z,99150.88
2024-05-09T04:18:58.805Z,99146.28
2024-05-09T04:20:03.619Z,99146.91
2024-05-09T04:21:06.619Z,99148.31
2024-05-09T04:22:08.829Z,99154.97
2024-05-09T04:23:15.764Z,99156.34
2024-05-09T04:24:17.991Z,99149.09
2024-05-09T04:25:20.187Z,99150.81
2024-05-09T04:26:22.477Z,99149.44
2024-05-09T04:27:27.183Z,99147.31
2024-05-09T04:28:29.564Z,99142.81
2024-05-09T04:29:32.282Z,99149.94
2024-05-09T04:30:38.915Z,99150.97
2024-05-09T04:31:48.476Z,99151.41
2024-05-09T04:32:51.069Z,99150.22
2024-05-09T04:33:53.515Z,99150.16
2024-05-09T04:34:58.502Z,99162.06
2024-05-09T04:36:00.642Z,99161.78
2024-05-09T04:37:03.048Z,99163.16
2024-05-09T04:38:05.535Z,99164.56
2024-05-09T04:39:10.596Z,99165.69
2024-05-09T04:40:24.032Z,99166.13
2024-05-09T04:41:33.309Z,99168.22
2024-05-09T04:42:38.022Z,99165.13
2024-05-09T04:43:40.357Z,99172.31
2024-05-09T04:44:42.505Z,99168.25
2024-05-09T04:45:44.704Z,99167.59
2024-05-09T04:46:49.823Z,99169.50
2024-05-09T04:47:55.001Z,99161.06
2024-05-09T04:48:57.523Z,99168.88
2024-05-09T04:49:59.951Z,99167.31
2024-05-09T04:51:02.652Z,99169.28
2024-05-09T04:52:08.008Z,99170.25
2024-05-09T04:53:11.326Z,99170.34
2024-05-09T04:54:25.743Z,99171.28
2024-05-09T04:55:35.347Z,99177.41
2024-05-09T04:56:37.580Z,99175.56
2024-05-09T04:57:40.068Z,99177.22
2024-05-09T04:58:44.886Z,99171.81
2024-05-09T04:59:47.098Z,99181.16
2024-05-09T05:00:49.239Z,99177.63
2024-05-09T05:01:56.756Z,99171.38
2024-05-09T05:02:59.319Z,99172.72
2024-05-09T05:04:01.952Z,99171.47
2024-05-09T05:05:04.673Z,99172.81
2024-05-09T05:06:09.645Z,99178.53
2024-05-09T05:07:12.761Z,99173.63
2024-05-09T05:08:15.873Z,99170.69
2024-05-09T05:09:18.591Z,99171.09
2024-05-09T05:10:29.598Z,99167.31
2024-05-09T05:11:37.698Z,99175.53
2024-05-09T05:12:58.545Z,99168.13
2024-05-09T05:14:00.845Z,99170.91
2024-05-09T05:15:05.760Z,99180.75
2024-05-09T05:16:07.958Z,99177.50
2024-05-09T05:17:15.374Z,99171.75
2024-05-09T05:18:18.301Z,99175.44
2024-05-09T05:19:20.837Z,99181.63
2024-05-09T05:20:30.663Z,99186.50
2024-05-09T05:21:38.198Z,99179.78
2024-05-09T05:22:43.132Z,99179.81
2024-05-09T05:23:45.280Z,99168.59
2024-05-09T05:24:47.453Z,99171.22
2024-05-09T05:25:53.595Z,99170.44
2024-05-09T05:26:56.208Z,99175.69
2024-05-09T05:27:58.286Z,99176.28
2024-05-09T05:29:00.539Z,99175.56
2024-05-09T05:30:07.508Z,99177.09
2024-05-09T05:31:11.625Z,99176.91
2024-05-09T05:32:16.560Z,99174.41
2024-05-09T05:33:22.392Z,99170.84
2024-05-09T05:34:24.964Z,99174.38
2024-05-09T05:35:27.192Z,99175.53
2024-05-09T05:36:32.458Z,99179.34
2024-05-09T05:37:35.438Z,99180.69
2024-05-09T05:38:37.539Z,99182.78
2024-05-09T05:39:42.231Z,99175.28
2024-05-09T05:40:44.484Z,99175.94
2024-05-09T05:41:46.640Z,99175.13
2024-05-09T05:42:51.399Z,99184.28
2024-05-09T05:43:53.614Z,99175.47
2024-05-09T05:44:55.650Z,99176.03
2024-05-09T05:45:57.902Z,99181.41
2024-05-09T05:47:02.529Z,99181.91
2024-05-09T05:48:08.322Z,99187.84
2024-05-09T05:49:10.808Z,99181.72
2024-05-09T05:50:23.701Z,99176.69
2024-05-09T05:51:32.383Z,99183.56
2024-05-09T05:52:34.565Z,99191.28
2024-05-09T05:53:36.759Z,99187.72
2024-05-09T05:54:41.926Z,99189.13
2024-05-09T05:55:44.022Z,99191.34
2024-05-09T05:56:46.284Z,99196.50
2024-05-09T05:57:51.196Z,99191.38
2024-05-09T05:58:53.349Z,99189.78
2024-05-09T05:59:55.481Z,99190.94
2024-05-09T06:00:57.915Z,99195.75
2024-05-09T06:02:02.843Z,99193.09
2024-05-09T06:03:08.610Z,99186.13
2024-05-09T06:04:11.182Z,99182.16
2024-05-09T06:05:13.767Z,99187.59
2024-05-09T06:06:18.610Z,99187.41
2024-05-09T06:07:20.803Z,99187.91
2024-05-09T06:08:23.736Z,99188.56
2024-05-09T06:09:26.750Z,99186.88
2024-05-09T06:10:38.011Z,99184.88
2024-05-09T06:11:42.841Z,99183.88
2024-05-09T06:12:44.941Z,99186.19
2024-05-09T06:13:47.201Z,99187.97
2024-05-09T06:14:52.041Z,99185.59
2024-05-09T06:15:55.180Z,99187.81
2024-05-09T06:16:58.475Z,99189.03
2024-05-09T06:18:03.568Z,99190.94
2024-05-09T06:19:08.441Z,99190.66
2024-05-09T06:20:20.158Z,99188.16
2024-05-09T06:21:26.744Z,99189.94
2024-05-09T06:22:31.666Z,99195.53
2024-05-09T06:23:34.005Z,99182.69
2024-05-09T06:24:36.126Z,99186.28
2024-05-09T06:25:38.640Z,99186.81
2024-05-09T06:26:44.864Z,99183.63
2024-05-09T06:27:47.001Z,99186.34
2024-05-09T06:28:49.165Z,99189.09
2024-05-09T06:29:51.395Z,99189.28
2024-05-09T06:30:56.150Z,99188.00
2024-05-09T06:32:00.301Z,99184.06
2024-05-09T06:33:02.912Z,99186.34
2024-05-09T06:34:05.411Z,99191.66
2024-05-09T06:35:12.957Z,99181.78
2024-05-09T06:36:15.260Z,99186.06
2024-05-09T06:37:17.466Z,99187.28
2024-05-09T06:38:19.616Z,99183.59
2024-05-09T06:39:24.483Z,99186.28
2024-05-09T06:40:35.959Z,99189.53
2024-05-09T06:41:40.840Z,99186.09
2024-05-09T06:42:45.658Z,99187.66
2024-05-09T06:43:47.855Z,99186.22
2024-05-09T06:44:50.129Z,99187.94
2024-05-09T06:45:53.683Z,99185.97
2024-05-09T06:46:59.933Z,99180.72
2024-05-09T06:48:02.965Z,99176.50
2024-05-09T06:49:08.376Z,99181.13
2024-05-09T06:50:28.196Z,99178.94
2024-05-09T06:51:39.201Z,99173.63
2024-05-09T06:52:41.249Z,99177.53
2024-05-09T06:53:43.544Z,99168.34
2024-05-09T06:54:45.616Z,99176.16
2024-05-09T06:55:50.501Z,99177.59
2024-05-09T06:56:52.728Z,99180.50
2024-05-09T06:57:55.427Z,99174.56
2024-05-09T06:58:57.660Z,99171.75
2024-05-09T07:00:02.427Z,99174.25
2024-05-09T07:01:05.118Z,99178.16
2024-05-09T07:02:07.733Z,99168.09
2024-05-09T07:03:14.954Z,99171.38
2024-05-09T07:04:19.422Z,99171.16
2024-05-09T07:05:24.493Z,99176.88
2024-05-09T07:06:26.764Z,99175.81
2024-05-09T07:07:31.568Z,99172.09
2024-05-09T07:08:33.720Z,99175.59
2024-05-09T07:09:36.156Z,99176.34
2024-05-09T07:10:38.635Z,99169.75
2024-05-09T07:11:43.555Z,99169.16
2024-05-09T07:12:45.713Z,99174.66
2024-05-09T07:13:47.945Z,99172.00
2024-05-09T07:14:52.891Z,99172.00
2024-05-09T07:15:55.024Z,99173.19
2024-05-09T07:16:57.493Z,99176.03
2024-05-09T07:17:59.754Z,99176.00
2024-05-09T07:19:04.894Z,99174.56
2024-05-09T07:20:11.679Z,99183.88
2024-05-09T07:21:16.747Z,99179.66
2024-05-09T07:22:19.108Z,99176.91
2024-05-09T07:23:23.954Z,99172.78
2024-05-09T07:24:26.280Z,99171.63
2024-05-09T07:25:28.432Z,99179.81
2024-05-09T07:26:30.680Z,99178.13
2024-05-09T07:27:35.428Z,99180.72
2024-05-09T07:28:37.623Z,99179.09
2024-05-09T07:29:39.814Z,99173.00
2024-05-09T07:30:44.880Z,99175.78
2024-05-09T07:31:47.107Z,99181.59
2024-05-09T07:32:49.428Z,99180.38
2024-05-09T07:33:54.462Z,99181.38
2024-05-09T07:34:56.907Z,99185.00
2024-05-09T07:35:59.090Z,99179.72
2024-05-09T07:37:12.670Z,99175.25
2024-05-09T07:38:15.133Z,99174.16
2024-05-09T07:39:17.335Z,99175.19
2024-05-09T07:40:28.565Z,99176.25
2024-05-09T07:41:39.807Z,99172.19
2024-05-09T07:42:41.974Z,99169.91
2024-05-09T07:43:44.471Z,99169.06
2024-05-09T07:44:46.542Z,99180.06
2024-05-09T07:45:54.302Z,99174.78
2024-05-09T07:50:55.135Z,99180.47
2024-05-09T07:52:23.521Z,99182.47
2024-05-09T07:53:21.912Z,99179.28
2024-05-09T07:54:30.557Z,99178.88
2024-05-09T07:55:33.088Z,99177.44
2024-05-09T07:56:38.494Z,99165.28
2024-05-09T07:57:40.811Z,99185.19
2024-05-09T07:58:43.680Z,99174.50
2024-05-09T07:59:45.848Z,99182.06
2024-05-09T08:00:50.657Z,99176.69
2024-05-09T08:01:52.797Z,99181.75
2024-05-09T08:02:55.095Z,99180.84
2024-05-09T08:03:57.476Z,99179.22
2024-05-09T08:05:02.593Z,99179.81
2024-05-09T08:06:05.353Z,99180.44
2024-05-09T08:07:07.760Z,99181.38
2024-05-09T08:08:11.367Z,99174.69
2024-05-09T08:09:21.154Z,99184.69
2024-05-09T08:10:28.554Z,99183.34
2024-05-09T08:11:32.939Z,99176.66
2024-05-09T08:12:37.744Z,99170.88
2024-05-09T08:13:39.920Z,99172.84
2024-05-09T08:14:41.926Z,99175.44
2024-05-09T08:15:46.723Z,99164.50
2024-05-09T08:16:48.916Z,99164.03
2024-05-09T08:17:51.113Z,99164.28
2024-05-09T08:18:56.006Z,99162.47
2024-05-09T08:19:58.254Z,99162.47
2024-05-09T08:21:00.367Z,99161.44
2024-05-09T08:22:07.051Z,99166.56
2024-05-09T08:23:11.968Z,99173.66
2024-05-09T08:24:19.135Z,99167.91
2024-05-09T08:25:21.353Z,99171.94
2024-05-09T08:26:26.122Z,99173.38
2024-05-09T08:27:28.299Z,99168.88
2024-05-09T08:28:30.545Z,99171.09
2024-05-09T08:29:36.651Z,99178.94
2024-05-09T08:30:38.893Z,99165.38
2024-05-09T08:31:41.180Z,99179.44
2024-05-09T08:32:45.867Z,99181.75
2024-05-09T08:33:51.729Z,99175.59
2024-05-09T08:34:54.043Z,99175.13
2024-05-09T08:35:56.211Z,99171.63
2024-05-09T08:37:03.710Z,99173.72
2024-05-09T08:38:14.491Z,99172.94
2024-05-09T08:39:19.484Z,99182.34
2024-05-09T08:40:30.561Z,99174.56
2024-05-09T08:41:40.892Z,99178.19
2024-05-09T08:42:48.911Z,99180.78
2024-05-09T08:43:51.038Z,99173.00
2024-05-09T08:44:53.118Z,99168.06
2024-05-09T08:45:58.342Z,99175.84
2024-05-09T08:47:00.458Z,99171.66
2024-05-09T08:48:05.831Z,99165.84
2024-05-09T08:49:08.564Z,99173.22
2024-05-09T08:50:24.317Z,99176.31
2024-05-09T08:51:34.507Z,99172.59
2024-05-09T08:52:37.072Z,99175.44
2024-05-09T08:53:41.807Z,99172.78
2024-05-09T08:54:46.534Z,99167.44
2024-05-09T08:55:49.655Z,99174.31
2024-05-09T08:56:51.907Z,99171.16
2024-05-09T08:57:56.756Z,99169.22
2024-05-09T08:59:01.390Z,99167.50
2024-05-09T09:00:10.013Z,99171.81
2024-05-09T09:01:17.847Z,99171.06
2024-05-09T09:02:21.160Z,99171.13
2024-05-09T09:03:27.958Z,99179.34
2024-05-09T09:04:34.057Z,99177.00
2024-05-09T09:05:38.670Z,99167.16
2024-05-09T09:06:41.343Z,99158.84
2024-05-09T09:07:48.294Z,99160.03
2024-05-09T09:08:53.380Z,99162.53
2024-05-09T09:09:58.171Z,99168.31
2024-05-09T09:11:00.663Z,99166.94
2024-05-09T09:12:06.709Z,99169.44
2024-05-09T09:13:11.313Z,99164.56
2024-05-09T09:14:13.704Z,99169.13
2024-05-09T09:15:18.713Z,99176.50
2024-05-09T09:16:21.098Z,99172.75
2024-05-09T09:17:23.286Z,99171.28
2024-05-09T09:18:26.321Z,99174.31
2024-05-09T09:19:31.323Z,99164.97
2024-05-09T09:20:36.607Z,99174.31
2024-05-09T09:21:39.545Z,99171.13
2024-05-09T09:22:44.388Z,99161.97
2024-05-09T09:23:46.536Z,99162.94
2024-05-09T09:24:49.079Z,99161.38
2024-05-09T09:25:56.626Z,99168.50
2024-05-09T09:26:58.764Z,99164.09
2024-05-09T09:28:01.194Z,99166.63
2024-05-09T09:29:06.041Z,99163.03
2024-05-09T09:30:15.618Z,99161.56
2024-05-09T09:31:25.250Z,99161.13
2024-05-09T09:32:31.068Z,99150.94
2024-05-09T09:33:35.715Z,99160.88
2024-05-09T09:34:38.282Z,99159.00
2024-05-09T09:35:41.023Z,99161.56
2024-05-09T09:36:45.941Z,99164.22
2024-05-09T09:37:50.963Z,99162.50
2024-05-09T09:38:53.389Z,99153.28
2024-05-09T09:39:55.722Z,99154.97
2024-05-09T09:41:04.440Z,99150.66
2024-05-09T09:42:06.842Z,99158.50
2024-05-09T09:43:12.608Z,99154.81
2024-05-09T09:44:19.269Z,99154.56
2024-05-09T09:45:21.332Z,99159.81
2024-05-09T09:46:24.527Z,99148.13
2024-05-09T09:47:27.706Z,99155.13
2024-05-09T09:48:34.173Z,99148.81
2024-05-09T09:49:36.880Z,99148.81
2024-05-09T09:50:39.255Z,99153.50
2024-05-09T09:51:44.954Z,99153.53
2024-05-09T09:52:47.864Z,99152.00
2024-05-09T09:53:50.877Z,99156.31
2024-05-09T09:54:56.754Z,99157.47
2024-05-09T09:56:02.061Z,99157.69
2024-05-09T09:57:05.069Z,99152.75
2024-05-09T09:58:09.785Z,99148.81
2024-05-09T09:59:17.091Z,99147.44
2024-05-09T10:00:26.836Z,99151.88
2024-05-09T10:01:34.620Z,99156.34
2024-05-09T10:02:36.974Z,99154.84
2024-05-09T10:03:42.266Z,99151.28
2024-05-09T10:04:44.611Z,99148.50
2024-05-09T10:05:47.537Z,99147.66
2024-05-09T10:06:52.240Z,99147.31
2024-05-09T10:07:57.751Z,99146.13
2024-05-09T10:09:00.144Z,99137.38
2024-05-09T10:10:02.607Z,99141.25
2024-05-09T10:11:08.575Z,99148.63
2024-05-09T10:12:14.452Z,99140.44
2024-05-09T10:13:16.887Z,99144.00
2024-05-09T10:14:21.702Z,99146.88
2024-05-09T10:15:24.004Z,99147.56
2024-05-09T10:16:33.691Z,99143.53
2024-05-09T10:17:36.118Z,99144.91
2024-05-09T10:18:38.996Z,99134.66
2024-05-09T10:19:44.102Z,99142.59
2024-05-09T10:20:46.828Z,99138.09
2024-05-09T10:21:51.692Z,99141.31
2024-05-09T10:22:54.002Z,99142.47
2024-05-09T10:24:00.015Z,99148.69
2024-05-09T10:25:09.707Z,99148.38
2024-05-09T10:26:14.496Z,99148.28
2024-05-09T10:27:16.769Z,99144.59
2024-05-09T10:28:20.395Z,99146.50
2024-05-09T10:29:26.431Z,99140.78
2024-05-09T10:30:36.080Z,99142.06
2024-05-09T10:31:41.389Z,99140.44
2024-05-09T10:32:47.697Z,99147.47
2024-05-09T10:33:52.226Z,99141.50
2024-05-09T10:35:01.974Z,99147.09
2024-05-09T10:36:04.763Z,99149.31
2024-05-09T10:37:09.964Z,99154.56
2024-05-09T10:38:12.868Z,99150.13
2024-05-09T10:39:15.527Z,99156.19
2024-05-09T10:40:25.899Z,99146.38
2024-05-09T10:41:36.739Z,99140.66
2024-05-09T10:42:39.773Z,99145.22
2024-05-09T10:43:42.510Z,99144.50
2024-05-09T10:44:44.576Z,99143.59
2024-05-09T10:45:52.498Z,99145.69
2024-05-09T10:46:55.280Z,99139.84
2024-05-09T10:47:57.779Z,99136.00
2024-05-09T10:49:03.305Z,99134.72
2024-05-09T10:50:18.070Z,99139.59
2024-05-09T10:51:24.829Z,99136.38
2024-05-09T10:52:27.120Z,99126.56
2024-05-09T10:53:29.249Z,99133.97
2024-05-09T10:54:38.532Z,99128.94
2024-05-09T10:55:40.932Z,99129.72
2024-05-09T10:56:48.357Z,99140.00
2024-05-09T10:57:50.623Z,99123.91
2024-05-09T10:58:55.669Z,99132.34
2024-05-09T11:00:00.038Z,99126.75
2024-05-09T11:01:05.645Z,99133.66
2024-05-09T11:02:10.175Z,99125.03
2024-05-09T11:03:16.561Z,99120.50
2024-05-09T11:04:19.087Z,99122.50
2024-05-09T11:05:21.716Z,99121.75
2024-05-09T11:06:24.030Z,99119.88
2024-05-09T11:07:28.794Z,99125.38
2024-05-09T11:08:31.891Z,99118.97
2024-05-09T11:09:39.025Z,99120.69
2024-05-09T11:10:42.205Z,99118.25
2024-05-09T11:11:49.803Z,99110.94
2024-05-09T11:12:52.374Z,99114.25
2024-05-09T11:13:54.659Z,99116.19
2024-05-09T11:14:56.805Z,99106.63
2024-05-09T11:16:02.176Z,99111.78
2024-05-09T11:17:06.419Z,99115.13
2024-05-09T11:18:09.120Z,99102.91
2024-05-09T11:19:15.826Z,99104.53
2024-05-09T11:20:26.439Z,99106.69
2024-05-09T11:21:31.895Z,99105.94
2024-05-09T11:22:34.204Z,99109.66
2024-05-09T11:23:38.851Z,99113.25
2024-05-09T11:24:41.270Z,99113.25
2024-05-09T11:25:48.728Z,99108.41
2024-05-09T11:26:53.509Z,99110.19
2024-05-09T11:28:01.534Z,99105.19
2024-05-09T11:29:03.811Z,99109.34
2024-05-09T11:30:24.336Z,99107.06
2024-05-09T11:31:37.278Z,99107.56
2024-05-09T11:32:39.419Z,99109.47
2024-05-09T11:33:44.688Z,99103.75
2024-05-09T11:34:49.565Z,99105.66
2024-05-09T11:35:51.950Z,99108.88
2024-05-09T11:36:54.225Z,99099.13
2024-05-09T11:37:56.516Z,99102.06
2024-05-09T11:39:01.366Z,99100.41
2024-05-09T11:40:06.802Z,99099.69
2024-05-09T11:41:09.379Z,99101.94
2024-05-09T11:42:14.358Z,99100.03
2024-05-09T11:43:16.807Z,99093.91
2024-05-09T11:44:21.692Z,99101.41
2024-05-09T11:45:23.882Z,99087.00
2024-05-09T11:46:26.129Z,99095.53
2024-05-09T11:47:31.013Z,99097.16
2024-05-09T11:48:33.357Z,99101.88
2024-05-09T11:49:36.127Z,99099.19
2024-05-09T11:50:39.154Z,99102.56
2024-05-09T11:51:44.105Z,99096.03
2024-05-09T11:52:46.174Z,99102.78
2024-05-09T11:53:48.389Z,99095.56
2024-05-09T11:54:53.308Z,99101.38
2024-05-09T11:55:55.508Z,99096.50
2024-05-09T11:56:57.922Z,99092.78
2024-05-09T11:58:05.455Z,99089.66
2024-05-09T11:59:10.109Z,99093.16
2024-05-09T12:00:18.236Z,99092.56
2024-05-09T12:01:28.015Z,99094.31
2024-05-09T12:02:30.877Z,99100.63
2024-05-09T12:03:37.972Z,99094.84
2024-05-09T12:04:40.372Z,99095.88
2024-05-09T12:05:42.791Z,99087.50
2024-05-09T12:06:46.430Z,99092.00
2024-05-09T12:07:51.261Z,99093.47
2024-05-09T12:08:53.676Z,99093.84
2024-05-09T12:09:55.920Z,99091.66
2024-05-09T12:10:58.829Z,99089.88
2024-05-09T12:12:03.568Z,99086.84
2024-05-09T12:13:08.565Z,99088.13
2024-05-09T12:14:10.671Z,99090.25
2024-05-09T12:15:15.571Z,99086.66
2024-05-09T12:16:17.992Z,99080.97
2024-05-09T12:17:20.456Z,99089.38
2024-05-09T12:18:22.851Z,99081.44
2024-05-09T12:19:27.829Z,99088.53
2024-05-09T12:20:36.455Z,99084.69
2024-05-09T12:21:41.363Z,99081.38
2024-05-09T12:22:47.557Z,99076.56
2024-05-09T12:23:49.754Z,99082.94
2024-05-09T12:24:51.969Z,99083.88
2024-05-09T12:25:54.144Z,99074.00
2024-05-09T12:26:58.995Z,99071.41
2024-05-09T12:28:01.449Z,99075.75
2024-05-09T12:29:07.128Z,99077.06
2024-05-09T12:30:20.626Z,99067.78
2024-05-09T12:31:27.529Z,99072.66
2024-05-09T12:32:29.822Z,99068.31
2024-05-09T12:33:34.736Z,99071.66
2024-05-09T12:34:38.199Z,99044.91
2024-05-09T12:35:40.506Z,99066.25
2024-05-09T12:36:42.765Z,99067.75
2024-05-09T12:37:47.570Z,99068.88
2024-05-09T12:38:50.140Z,99057.56
2024-05-09T12:39:52.324Z,99072.81
2024-05-09T12:40:54.613Z,99066.47